Time;durP1;ratioP1;P1;durP2;ratioP2;P2;SDS_P1;SDS_P2;PMS_P1;PMS_P2;Temp;Humidity;BMP_temperature;BMP_pressure;BME280_temperature;BME280_humidity;BME280_pressure;Samples;Min_cycle;Max_cycle;Signal;HPM_P1;HPM_P2
2022/01/07 00:00:53;;;;;;;4.60;2.33;;;-1.00;99.90;;;;;;4977074;28;20291;-79
2022/01/07 00:03:19;;;;;;;5.10;2.27;;;-1.00;99.90;;;;;;4993581;28;20195;-78
2022/01/07 00:05:45;;;;;;;7.40;2.33;;;-1.10;99.90;;;;;;4979939;28;20579;-78
2022/01/07 00:08:10;;;;;;;3.90;2.00;;;-1.10;99.90;;;;;;4979360;28;20188;-80
2022/01/07 00:10:36;;;;;;;5.60;2.33;;;-1.10;99.90;;;;;;4994804;28;20227;-78
2022/01/07 00:13:02;;;;;;;3.90;2.17;;;-1.20;99.90;;;;;;4993340;28;20187;-78
2022/01/07 00:15:28;;;;;;;5.70;2.23;;;-1.20;99.90;;;;;;4993445;28;20192;-78
2022/01/07 00:17:53;;;;;;;4.43;2.13;;;-1.30;99.90;;;;;;4985765;28;20189;-79
2022/01/07 00:20:19;;;;;;;6.60;2.20;;;-1.30;99.90;;;;;;4992433;28;20248;-81
2022/01/07 00:22:47;;;;;;;4.83;3.03;;;-1.40;99.90;;;;;;4995019;28;20251;-79
2022/01/07 00:25:13;;;;;;;6.17;3.07;;;-1.40;99.90;;;;;;4978825;28;20188;-79
2022/01/07 00:27:40;;;;;;;5.63;2.07;;;-1.40;99.90;;;;;;4991624;28;20209;-80
2022/01/07 00:30:08;;;;;;;5.13;2.53;;;-1.50;99.90;;;;;;4977971;28;20211;-79
2022/01/07 00:32:33;;;;;;;6.00;2.23;;;-1.50;99.90;;;;;;4977085;28;20574;-78
2022/01/07 00:34:59;;;;;;;4.10;2.63;;;-1.50;99.90;;;;;;4979512;28;20228;-79
2022/01/07 00:37:25;;;;;;;8.00;2.17;;;-1.50;99.90;;;;;;4976472;28;20235;-78
2022/01/07 00:39:50;;;;;;;5.67;2.37;;;-1.50;99.90;;;;;;4979069;28;20311;-79
2022/01/07 00:42:16;;;;;;;4.93;2.90;;;-1.40;99.90;;;;;;4979483;28;20187;-79
2022/01/07 00:44:42;;;;;;;5.20;2.60;;;-1.50;99.90;;;;;;4985386;28;20180;-78
2022/01/07 00:47:07;;;;;;;8.20;3.07;;;-1.40;99.90;;;;;;4993859;28;20192;-80
2022/01/07 00:49:33;;;;;;;8.30;2.87;;;-1.30;99.90;;;;;;4978767;28;20216;-81
2022/01/07 00:52:01;;;;;;;5.77;2.70;;;-1.20;99.90;;;;;;4993391;28;20250;-80
2022/01/07 00:54:27;;;;;;;5.67;3.27;;;-1.20;99.90;;;;;;4978414;28;20180;-78
2022/01/07 00:56:53;;;;;;;6.80;2.40;;;-1.20;99.90;;;;;;4992727;28;20185;-79
2022/01/07 00:59:19;;;;;;;6.70;2.90;;;-1.20;99.90;;;;;;4991007;28;20195;-80
2022/01/07 01:01:46;;;;;;;6.13;3.17;;;-1.20;99.90;;;;;;4977181;28;20850;-79
2022/01/07 01:04:12;;;;;;;5.50;2.70;;;-1.10;99.90;;;;;;4977387;28;20204;-78
2022/01/07 01:06:41;;;;;;;9.20;3.10;;;-1.10;99.90;;;;;;4977608;28;20663;-80
2022/01/07 01:09:10;;;;;;;5.97;2.40;;;-1.00;99.90;;;;;;4977758;28;20188;-80
2022/01/07 01:11:36;;;;;;;8.93;2.70;;;-1.00;99.90;;;;;;4978533;28;20196;-80
2022/01/07 01:14:02;;;;;;;5.57;3.10;;;-0.80;99.90;;;;;;4977394;28;20187;-79
2022/01/07 01:16:28;;;;;;;7.47;3.10;;;-0.70;99.90;;;;;;4993015;28;20180;-78
2022/01/07 01:18:54;;;;;;;4.07;2.43;;;-0.70;99.90;;;;;;4977798;28;20184;-78
2022/01/07 01:21:19;;;;;;;5.43;2.83;;;-0.50;99.90;;;;;;4991738;28;20319;-79
2022/01/07 01:23:45;;;;;;;7.87;2.93;;;-0.40;99.90;;;;;;4977934;28;20177;-79
2022/01/07 01:26:14;;;;;;;5.20;2.33;;;-0.40;99.90;;;;;;4974648;28;20208;-79
2022/01/07 01:28:40;;;;;;;3.73;2.03;;;-0.40;99.90;;;;;;4976844;28;20232;-80
2022/01/07 01:31:06;;;;;;;6.80;2.50;;;-0.30;99.90;;;;;;4978625;28;20228;-79
2022/01/07 01:33:33;;;;;;;6.73;2.83;;;-0.30;99.90;;;;;;4978890;28;20645;-78
2022/01/07 01:35:59;;;;;;;4.97;2.33;;;-0.30;99.90;;;;;;4977380;28;20212;-81
2022/01/07 01:38:27;;;;;;;6.27;2.60;;;-0.20;99.90;;;;;;4976995;28;20269;-79
2022/01/07 01:40:53;;;;;;;5.27;2.70;;;-0.20;99.90;;;;;;4992135;28;20753;-79
2022/01/07 01:43:19;;;;;;;7.73;3.00;;;0.10;99.90;;;;;;4977636;28;21391;-80
2022/01/07 01:45:45;;;;;;;8.00;3.27;;;0.20;99.90;;;;;;4979255;28;20181;-79
2022/01/07 01:48:10;;;;;;;8.17;2.87;;;0.20;99.90;;;;;;4995709;28;20239;-80
2022/01/07 01:50:36;;;;;;;9.07;2.63;;;0.30;99.90;;;;;;4979175;28;20216;-78
2022/01/07 01:53:02;;;;;;;12.77;3.43;;;0.30;99.90;;;;;;4980673;28;20192;-78
2022/01/07 01:55:28;;;;;;;5.50;3.27;;;0.50;99.90;;;;;;4995518;28;20191;-80
2022/01/07 01:57:55;;;;;;;8.40;2.97;;;0.60;99.90;;;;;;4981283;28;20180;-79
2022/01/07 02:00:22;;;;;;;7.47;2.80;;;0.70;99.90;;;;;;4995125;28;20227;-78
2022/01/07 02:02:48;;;;;;;6.57;2.90;;;0.70;99.90;;;;;;4996537;28;20181;-79
2022/01/07 02:05:14;;;;;;;5.33;2.80;;;0.70;99.90;;;;;;4979797;28;20216;-79
2022/01/07 02:07:41;;;;;;;8.03;2.90;;;0.70;99.90;;;;;;4987886;28;20240;-79
2022/01/07 02:10:10;;;;;;;8.70;3.13;;;0.80;99.90;;;;;;4987836;28;20213;-79
2022/01/07 02:12:36;;;;;;;6.13;3.27;;;1.00;99.90;;;;;;4981189;28;20184;-80
2022/01/07 02:15:03;;;;;;;4.83;2.33;;;0.80;99.90;;;;;;4994002;28;20192;-81
2022/01/07 02:17:29;;;;;;;8.20;2.83;;;0.70;99.90;;;;;;4981146;28;20184;-80
2022/01/07 02:19:56;;;;;;;5.67;2.43;;;0.70;99.90;;;;;;4979268;28;20632;-78
2022/01/07 02:22:23;;;;;;;4.00;2.30;;;0.60;99.90;;;;;;4995469;28;20189;-78
2022/01/07 02:24:50;;;;;;;4.47;2.70;;;0.60;99.90;;;;;;4981259;28;20264;-81
2022/01/07 02:27:16;;;;;;;6.73;2.63;;;0.60;99.90;;;;;;4979154;28;20181;-78
2022/01/07 02:29:45;;;;;;;4.93;2.20;;;0.60;99.90;;;;;;4979733;28;20223;-79
2022/01/07 02:32:11;;;;;;;7.27;3.17;;;0.70;99.90;;;;;;4986950;28;20240;-78
2022/01/07 02:34:36;;;;;;;6.43;2.50;;;0.80;99.90;;;;;;4979355;28;20230;-78
2022/01/07 02:37:03;;;;;;;8.00;2.70;;;0.70;99.90;;;;;;4979386;28;20238;-80
2022/01/07 02:39:29;;;;;;;6.73;2.20;;;1.00;99.90;;;;;;4979750;28;20223;-79
2022/01/07 02:41:54;;;;;;;6.47;2.40;;;1.00;99.90;;;;;;4981251;28;20208;-78
2022/01/07 02:44:20;;;;;;;8.07;2.63;;;1.00;99.90;;;;;;4978803;28;20188;-80
2022/01/07 02:46:46;;;;;;;8.57;2.73;;;1.00;99.90;;;;;;4980493;28;20181;-80
2022/01/07 02:49:13;;;;;;;4.40;2.53;;;1.10;99.90;;;;;;4981647;28;20646;-78
2022/01/07 02:51:39;;;;;;;7.03;2.40;;;1.00;99.90;;;;;;4981430;28;20201;-78
2022/01/07 02:54:06;;;;;;;5.80;2.93;;;0.90;99.90;;;;;;4995524;28;20730;-79
2022/01/07 02:56:33;;;;;;;5.97;2.37;;;1.00;99.90;;;;;;4980044;28;20227;-79
2022/01/07 02:58:58;;;;;;;8.90;2.47;;;0.90;99.90;;;;;;4980441;28;20184;-79
2022/01/07 03:01:24;;;;;;;6.47;1.90;;;0.80;99.90;;;;;;4979518;28;20213;-79
2022/01/07 03:03:50;;;;;;;7.20;2.40;;;0.80;99.90;;;;;;4979464;28;20238;-79
2022/01/07 03:06:15;;;;;;;6.57;2.20;;;0.70;99.90;;;;;;4979508;28;20180;-80
2022/01/07 03:08:44;;;;;;;6.33;2.00;;;0.70;99.90;;;;;;4994786;28;21113;-79
2022/01/07 03:11:10;;;;;;;8.20;2.07;;;0.60;99.90;;;;;;4993734;28;20211;-78
2022/01/07 03:13:36;;;;;;;5.20;2.07;;;0.80;99.90;;;;;;4979497;28;20189;-79
2022/01/07 03:16:01;;;;;;;6.93;2.30;;;0.70;99.90;;;;;;4994858;28;20681;-78
2022/01/07 03:18:27;;;;;;;9.20;2.20;;;0.60;99.90;;;;;;4979856;28;20193;-79
2022/01/07 03:20:52;;;;;;;5.30;2.40;;;0.60;99.90;;;;;;4993993;28;20212;-79
2022/01/07 03:23:18;;;;;;;6.97;2.37;;;0.60;99.90;;;;;;4994383;28;20279;-79
2022/01/07 03:25:44;;;;;;;11.10;2.23;;;0.60;99.90;;;;;;4985375;28;20191;-79
2022/01/07 03:28:10;;;;;;;3.33;2.10;;;0.60;99.90;;;;;;4994503;28;20191;-80
2022/01/07 03:30:36;;;;;;;4.30;2.20;;;0.60;99.90;;;;;;4977661;28;20702;-81
2022/01/07 03:33:02;;;;;;;4.33;2.30;;;0.60;99.90;;;;;;4979021;28;21052;-79
2022/01/07 03:35:28;;;;;;;4.37;1.87;;;0.80;99.90;;;;;;4978050;28;20199;-79
2022/01/07 03:37:54;;;;;;;4.90;1.80;;;0.90;99.90;;;;;;4985970;28;20184;-79
2022/01/07 03:40:20;;;;;;;3.50;1.80;;;0.80;99.90;;;;;;4979542;28;20223;-79
2022/01/07 03:42:47;;;;;;;3.83;1.80;;;0.80;99.90;;;;;;4978870;28;20181;-79
2022/01/07 03:45:14;;;;;;;4.90;2.00;;;0.80;99.90;;;;;;4978411;28;20267;-79
2022/01/07 03:47:40;;;;;;;2.97;1.60;;;1.00;99.90;;;;;;4993464;28;20188;-79
2022/01/07 03:50:10;;;;;;;3.90;1.70;;;1.10;99.90;;;;;;4975793;28;20219;-80
2022/01/07 03:52:36;;;;;;;4.53;2.40;;;1.20;99.90;;;;;;4993205;28;20235;-80
2022/01/07 03:55:04;;;;;;;6.33;2.13;;;1.20;99.90;;;;;;4978308;28;20742;-80
2022/01/07 03:57:30;;;;;;;4.87;2.07;;;1.10;99.90;;;;;;4994172;28;20225;-79
2022/01/07 03:59:55;;;;;;;5.93;2.03;;;1.30;99.90;;;;;;4978445;28;20239;-79
2022/01/07 04:02:21;;;;;;;6.10;1.97;;;1.30;99.90;;;;;;4976888;28;20200;-79
2022/01/07 04:04:47;;;;;;;3.27;1.70;;;1.30;99.90;;;;;;4993365;28;20184;-79
2022/01/07 04:07:13;;;;;;;7.27;1.83;;;1.30;99.90;;;;;;4991534;28;20184;-79
2022/01/07 04:09:38;;;;;;;5.43;1.60;;;1.30;99.90;;;;;;4993546;28;20180;-80
2022/01/07 04:12:05;;;;;;;5.50;2.00;;;1.30;99.90;;;;;;4977502;28;20214;-80
2022/01/07 04:14:30;;;;;;;4.30;1.87;;;1.30;99.90;;;;;;4978774;28;20184;-78
2022/01/07 04:16:56;;;;;;;4.40;2.10;;;1.20;99.90;;;;;;4992550;28;21127;-78
2022/01/07 04:19:22;;;;;;;3.63;2.03;;;1.20;99.90;;;;;;4979477;28;20185;-79
2022/01/07 04:21:49;;;;;;;6.03;1.90;;;1.20;99.90;;;;;;4992683;28;20287;-79
2022/01/07 04:24:16;;;;;;;5.83;2.23;;;1.10;99.90;;;;;;4977561;28;20187;-80
2022/01/07 04:26:42;;;;;;;4.27;1.93;;;1.10;99.90;;;;;;4995464;28;20180;-78
2022/01/07 04:29:07;;;;;;;5.03;1.93;;;1.00;99.90;;;;;;4978751;28;20276;-79
2022/01/07 04:31:33;;;;;;;9.17;2.30;;;1.00;99.90;;;;;;4980116;28;20220;-79
2022/01/07 04:33:59;;;;;;;4.80;2.30;;;0.90;99.90;;;;;;4978717;28;20188;-78
2022/01/07 04:36:24;;;;;;;5.37;2.27;;;0.80;99.90;;;;;;4985294;28;20562;-79
2022/01/07 04:38:50;;;;;;;4.00;2.10;;;0.80;99.90;;;;;;4993529;28;20263;-79
2022/01/07 04:41:16;;;;;;;4.87;2.30;;;0.80;99.90;;;;;;4983565;28;20224;-79
2022/01/07 04:43:41;;;;;;;6.07;1.90;;;0.80;99.90;;;;;;4978967;28;20227;-80
2022/01/07 04:46:07;;;;;;;2.57;1.50;;;1.00;99.90;;;;;;4976567;28;20188;-80
2022/01/07 04:48:32;;;;;;;5.83;2.30;;;1.30;99.90;;;;;;4979509;28;20189;-80
2022/01/07 04:50:58;;;;;;;5.50;1.90;;;1.50;99.90;;;;;;4978043;28;20271;-80
2022/01/07 04:53:26;;;;;;;3.27;1.40;;;1.50;99.90;;;;;;4995555;28;20195;-79
2022/01/07 04:55:53;;;;;;;2.90;1.40;;;1.70;99.90;;;;;;4994039;28;20607;-80
2022/01/07 04:58:19;;;;;;;3.03;1.37;;;1.90;99.90;;;;;;4980199;28;20217;-80
2022/01/07 05:00:45;;;;;;;3.37;1.53;;;2.00;99.90;;;;;;4976853;28;20228;-79
2022/01/07 05:03:13;;;;;;;4.67;1.73;;;2.00;99.90;;;;;;4979544;28;20189;-79
2022/01/07 05:05:39;;;;;;;2.07;1.17;;;2.10;99.90;;;;;;4978256;28;20185;-79
2022/01/07 05:08:06;;;;;;;7.67;1.80;;;2.20;99.90;;;;;;4978507;28;20343;-79
2022/01/07 05:10:32;;;;;;;4.20;1.33;;;2.20;99.90;;;;;;4993408;28;20209;-80
2022/01/07 05:12:57;;;;;;;2.17;1.40;;;2.10;99.90;;;;;;4994962;28;20188;-78
2022/01/07 05:15:23;;;;;;;3.00;1.57;;;2.00;99.90;;;;;;4978709;28;20193;-79
2022/01/07 05:17:49;;;;;;;2.00;1.20;;;1.90;99.90;;;;;;4978932;28;20200;-78
2022/01/07 05:20:16;;;;;;;6.00;1.37;;;1.90;99.90;;;;;;4997071;28;20307;-80
2022/01/07 05:22:43;;;;;;;6.10;1.57;;;1.90;99.90;;;;;;4982315;28;20203;-80
2022/01/07 05:25:10;;;;;;;3.97;1.10;;;1.90;99.90;;;;;;4983107;28;20184;-80
2022/01/07 05:27:36;;;;;;;2.70;1.17;;;2.10;99.90;;;;;;4981033;28;20181;-79
2022/01/07 05:30:05;;;;;;;2.97;1.40;;;2.10;99.90;;;;;;4982641;28;20188;-80
2022/01/07 05:32:30;;;;;;;1.80;1.00;;;2.10;99.90;;;;;;4995736;28;20211;-78
2022/01/07 05:34:56;;;;;;;3.30;1.47;;;2.20;99.90;;;;;;4996894;28;20199;-78
2022/01/07 05:37:21;;;;;;;0.83;0.80;;;2.30;99.90;;;;;;4980749;28;20203;-79
2022/01/07 05:39:47;;;;;;;3.93;1.30;;;2.50;99.90;;;;;;4982331;28;20217;-80
2022/01/07 05:42:13;;;;;;;2.30;1.23;;;2.50;99.90;;;;;;4980475;28;20200;-78
2022/01/07 05:44:38;;;;;;;3.23;1.50;;;2.40;99.90;;;;;;4980000;28;20207;-80
2022/01/07 05:47:04;;;;;;;1.20;0.97;;;2.50;99.90;;;;;;4981235;28;20201;-80
2022/01/07 05:49:30;;;;;;;3.80;1.27;;;2.40;99.90;;;;;;4984048;28;20643;-80
2022/01/07 05:51:56;;;;;;;3.97;1.20;;;2.50;99.90;;;;;;4980956;28;20209;-80
2022/01/07 05:54:21;;;;;;;4.27;1.60;;;2.60;99.90;;;;;;4997024;28;20532;-80
2022/01/07 05:56:47;;;;;;;5.77;1.17;;;2.70;99.90;;;;;;4982203;28;20192;-80
2022/01/07 05:59:12;;;;;;;4.70;1.50;;;2.60;99.90;;;;;;4983876;28;20185;-80
2022/01/07 06:01:38;;;;;;;3.07;1.60;;;2.70;99.90;;;;;;4980225;28;20220;-78
2022/01/07 06:04:04;;;;;;;3.77;1.43;;;2.60;99.90;;;;;;4996453;28;20255;-80
2022/01/07 06:06:29;;;;;;;3.03;1.50;;;2.60;99.90;;;;;;4980984;28;20185;-79
2022/01/07 06:08:55;;;;;;;5.20;1.90;;;2.60;99.90;;;;;;4989083;28;20180;-79
2022/01/07 06:11:20;;;;;;;1.63;1.20;;;2.60;99.90;;;;;;4988791;28;20208;-80
2022/01/07 06:13:46;;;;;;;5.47;2.00;;;2.60;99.90;;;;;;4983506;28;20642;-80
2022/01/07 06:16:12;;;;;;;3.27;1.63;;;2.70;99.90;;;;;;4981639;28;20203;-79
2022/01/07 06:18:50;;;;;;;5.23;1.60;;;2.70;99.90;;;;;;4982310;28;20734;-80
2022/01/07 06:21:16;;;;;;;2.97;1.70;;;2.60;99.90;;;;;;4980891;28;20212;-80
2022/01/07 06:23:42;;;;;;;5.07;1.77;;;2.50;99.90;;;;;;4979451;28;20239;-80
2022/01/07 06:26:07;;;;;;;3.73;1.40;;;2.60;99.90;;;;;;4983862;28;21325;-79
2022/01/07 06:28:33;;;;;;;4.30;1.80;;;2.60;99.90;;;;;;4983530;28;20173;-80
2022/01/07 06:30:58;;;;;;;3.70;1.47;;;2.60;99.90;;;;;;4982454;28;20227;-80
2022/01/07 06:33:24;;;;;;;4.63;1.70;;;2.50;99.90;;;;;;4997306;28;20189;-80
2022/01/07 06:35:50;;;;;;;4.00;1.70;;;2.40;99.90;;;;;;4981619;28;20189;-79
2022/01/07 06:38:15;;;;;;;6.17;1.90;;;2.50;99.90;;;;;;4982354;28;20185;-78
2022/01/07 06:40:41;;;;;;;2.60;1.10;;;2.40;99.90;;;;;;4996819;28;20208;-77
2022/01/07 06:43:06;;;;;;;3.03;1.73;;;2.50;99.90;;;;;;4980783;28;20785;-79
2022/01/07 06:45:32;;;;;;;3.47;1.83;;;2.40;99.90;;;;;;4997198;28;20829;-78
2022/01/07 06:47:57;;;;;;;2.33;1.30;;;2.50;99.90;;;;;;4981007;28;20181;-79
2022/01/07 06:50:23;;;;;;;3.50;1.60;;;2.60;99.90;;;;;;4981352;28;20662;-79
2022/01/07 06:52:48;;;;;;;5.80;1.73;;;2.60;99.90;;;;;;4981297;28;20757;-80
2022/01/07 06:55:14;;;;;;;2.73;1.60;;;2.50;99.90;;;;;;4995265;28;20185;-79
2022/01/07 06:57:40;;;;;;;4.90;2.07;;;2.60;99.90;;;;;;4981556;28;20639;-79
2022/01/07 07:00:07;;;;;;;4.00;1.97;;;2.60;99.90;;;;;;4980555;28;20702;-78
2022/01/07 07:02:32;;;;;;;4.83;2.40;;;2.50;99.90;;;;;;4981648;28;20319;-79
2022/01/07 07:04:58;;;;;;;4.70;2.30;;;2.50;99.90;;;;;;4981934;28;20270;-80
2022/01/07 07:07:23;;;;;;;8.30;2.53;;;2.40;99.90;;;;;;4982936;28;21340;-80
2022/01/07 07:09:49;;;;;;;3.13;2.30;;;2.50;99.90;;;;;;4996687;28;20537;-79
2022/01/07 07:12:15;;;;;;;5.73;2.30;;;2.40;99.90;;;;;;4987528;28;20181;-79
2022/01/07 07:14:40;;;;;;;3.27;2.33;;;2.40;99.90;;;;;;4996612;28;20216;-80
2022/01/07 07:17:06;;;;;;;3.60;2.57;;;2.50;99.90;;;;;;4980348;28;20430;-80
2022/01/07 07:19:32;;;;;;;3.30;1.80;;;2.50;99.90;;;;;;4979953;28;20195;-79
2022/01/07 07:21:57;;;;;;;4.70;1.90;;;2.50;99.90;;;;;;4980225;28;20210;-79
2022/01/07 07:24:23;;;;;;;4.73;2.57;;;2.40;99.90;;;;;;4995887;28;20189;-78
2022/01/07 07:26:49;;;;;;;4.00;2.17;;;2.60;99.90;;;;;;4979543;28;20188;-80
2022/01/07 07:29:14;;;;;;;3.77;2.13;;;2.50;99.90;;;;;;4995059;28;20385;-79
2022/01/07 07:31:44;;;;;;;11.77;5.43;;;2.50;99.90;;;;;;4994924;28;20275;-79
2022/01/07 07:34:32;;;;;;;12.73;6.60;;;2.50;99.90;;;;;;4993491;28;20223;-80
2022/01/07 07:36:57;;;;;;;3.23;1.83;;;2.50;99.90;;;;;;4979623;28;21201;-79
2022/01/07 07:39:23;;;;;;;4.13;2.70;;;2.50;99.90;;;;;;4980631;28;20275;-80
2022/01/07 07:41:49;;;;;;;6.50;2.50;;;2.40;99.90;;;;;;4979657;28;20204;-80
2022/01/07 07:44:14;;;;;;;20.40;9.13;;;2.40;99.90;;;;;;4993886;28;20568;-79
2022/01/07 07:46:40;;;;;;;77.83;36.07;;;2.50;99.90;;;;;;4990049;28;20563;-79
2022/01/07 07:49:07;;;;;;;36.23;17.80;;;2.40;99.90;;;;;;4977683;28;20189;-79
2022/01/07 07:51:34;;;;;;;4.33;2.23;;;2.40;99.90;;;;;;4975143;28;20752;-79
2022/01/07 07:54:00;;;;;;;7.20;3.23;;;2.50;99.90;;;;;;4978421;28;20189;-79
2022/01/07 07:56:27;;;;;;;3.27;1.93;;;2.50;99.90;;;;;;4995687;28;20207;-79
2022/01/07 07:58:54;;;;;;;4.40;2.77;;;2.50;99.90;;;;;;4992437;28;20220;-79
2022/01/07 08:01:19;;;;;;;5.47;2.20;;;2.60;99.90;;;;;;4977741;28;20279;-79
2022/01/07 08:03:46;;;;;;;3.90;2.13;;;2.50;99.90;;;;;;4995395;28;20189;-80
2022/01/07 08:06:12;;;;;;;9.40;4.03;;;2.50;99.90;;;;;;4978958;28;20180;-79
2022/01/07 08:08:38;;;;;;;4.23;2.20;;;2.50;99.90;;;;;;4996509;28;20181;-79
2022/01/07 08:11:07;;;;;;;3.03;1.90;;;2.50;99.90;;;;;;4980945;28;20674;-79
2022/01/07 08:16:19;;;;;;;2.93;1.90;;;2.40;99.90;;;;;;4979782;28;20184;-78
2022/01/07 08:18:49;;;;;;;4.33;2.23;;;2.40;99.90;;;;;;4978694;28;20195;-79
2022/01/07 08:21:15;;;;;;;3.33;2.00;;;2.40;99.90;;;;;;4992605;28;20229;-79
2022/01/07 08:23:42;;;;;;;5.13;2.53;;;2.30;99.90;;;;;;4979257;28;20204;-79
2022/01/07 08:26:10;;;;;;;3.60;2.20;;;2.30;99.90;;;;;;4979645;28;20714;-79
2022/01/07 08:28:44;;;;;;;3.53;2.40;;;2.40;99.90;;;;;;4994771;28;20191;-79
2022/01/07 08:36:24;;;;;;;3.53;2.27;;;2.40;99.90;;;;;;4977526;28;20191;-78
2022/01/07 08:38:52;;;;;;;3.90;1.90;;;2.40;99.90;;;;;;4977094;28;20184;-80
2022/01/07 08:41:19;;;;;;;8.90;2.07;;;2.40;99.90;;;;;;4976540;28;20216;-79
2022/01/07 08:43:44;;;;;;;14.17;7.83;;;2.40;99.90;;;;;;4986647;28;20191;-79
2022/01/07 08:46:10;;;;;;;9.70;4.60;;;2.50;99.90;;;;;;4972408;28;20193;-79
2022/01/07 08:48:37;;;;;;;7.33;2.93;;;2.50;99.90;;;;;;4976758;28;20215;-78
2022/01/07 08:51:04;;;;;;;4.53;2.77;;;2.50;99.90;;;;;;4975366;28;20212;-79
2022/01/07 08:53:30;;;;;;;2.30;1.70;;;2.60;99.90;;;;;;4971970;28;20195;-79
2022/01/07 08:55:56;;;;;;;2.03;1.80;;;2.60;99.90;;;;;;4959478;28;20572;-79
2022/01/07 08:58:22;;;;;;;2.43;1.70;;;2.50;99.90;;;;;;4966657;28;20267;-79
2022/01/07 09:00:49;;;;;;;2.50;1.43;;;2.50;99.90;;;;;;4970890;28;20416;-79
2022/01/07 09:03:14;;;;;;;3.73;1.90;;;2.50;99.90;;;;;;4983873;28;20215;-79
2022/01/07 09:05:40;;;;;;;2.37;1.57;;;2.40;99.90;;;;;;4968907;28;20666;-79
2022/01/07 09:08:09;;;;;;;2.33;1.30;;;2.40;99.90;;;;;;4974071;28;20467;-79
2022/01/07 09:10:35;;;;;;;1.73;1.40;;;2.50;99.90;;;;;;4976208;28;20205;-78
2022/01/07 09:13:00;;;;;;;2.77;1.37;;;2.50;99.90;;;;;;4992122;28;20193;-79
2022/01/07 09:15:26;;;;;;;2.07;1.33;;;2.50;99.90;;;;;;4976144;28;20184;-79
2022/01/07 09:17:52;;;;;;;2.87;1.33;;;2.60;99.90;;;;;;4978598;28;20196;-78
2022/01/07 09:20:20;;;;;;;2.03;1.27;;;2.50;99.90;;;;;;4976708;28;20247;-79
2022/01/07 09:22:46;;;;;;;1.80;1.43;;;2.60;99.90;;;;;;4994999;28;20184;-79
2022/01/07 09:25:12;;;;;;;1.37;1.00;;;2.60;99.90;;;;;;4987239;28;21258;-79
2022/01/07 09:27:38;;;;;;;1.97;1.20;;;2.70;99.90;;;;;;4986515;28;20181;-78
2022/01/07 09:30:05;;;;;;;2.87;1.50;;;2.70;99.90;;;;;;4978979;28;20219;-78
2022/01/07 09:32:30;;;;;;;2.83;1.10;;;2.70;99.90;;;;;;4981107;28;20366;-79
2022/01/07 09:34:56;;;;;;;3.03;1.50;;;2.80;99.90;;;;;;4981333;28;20327;-78
2022/01/07 09:37:22;;;;;;;2.00;1.33;;;2.80;99.90;;;;;;4988469;28;20184;-79
2022/01/07 09:39:47;;;;;;;2.53;1.50;;;2.90;99.90;;;;;;4980537;28;20227;-78
2022/01/07 09:42:13;;;;;;;2.90;1.40;;;3.00;99.90;;;;;;4978730;28;20583;-78
2022/01/07 09:44:40;;;;;;;1.70;1.30;;;3.00;99.90;;;;;;4978130;28;20268;-79
2022/01/07 09:47:07;;;;;;;2.33;1.40;;;3.00;99.90;;;;;;4977307;28;21186;-79
2022/01/07 09:49:35;;;;;;;3.90;1.30;;;3.10;99.90;;;;;;4978921;28;20185;-79
2022/01/07 09:52:01;;;;;;;2.47;1.37;;;3.10;99.90;;;;;;4994145;28;20208;-79
2022/01/07 09:54:28;;;;;;;2.23;1.50;;;3.10;99.90;;;;;;4992164;28;20220;-79
2022/01/07 09:56:53;;;;;;;3.40;1.77;;;3.20;99.90;;;;;;4979650;28;20187;-80
2022/01/07 09:59:19;;;;;;;1.40;1.30;;;3.20;99.90;;;;;;4977335;28;20189;-79
2022/01/07 10:01:54;;;;;;;1.50;1.23;;;3.10;99.90;;;;;;4976200;28;20597;-79
2022/01/07 10:04:36;;;;;;;3.57;2.23;;;3.10;99.90;;;;;;4993628;28;20236;-79
2022/01/07 10:07:29;;;;;;;4.97;3.13;;;3.20;99.90;;;;;;4976523;28;20229;-79
2022/01/07 10:10:07;;;;;;;4.43;3.33;;;3.10;99.90;;;;;;4968633;28;20196;-79
2022/01/07 10:13:00;;;;;;;3.50;2.13;;;3.10;99.90;;;;;;4995217;28;20188;-79
2022/01/07 10:15:36;;;;;;;2.30;2.10;;;3.10;99.90;;;;;;4983555;28;20555;-78
2022/01/07 10:18:05;;;;;;;1.70;1.27;;;3.20;99.90;;;;;;4971226;28;20180;-79
2022/01/07 10:20:32;;;;;;;2.63;1.60;;;3.20;99.90;;;;;;4975937;28;20247;-78
2022/01/07 10:23:06;;;;;;;2.90;1.43;;;3.20;99.90;;;;;;4987514;28;20192;-78
2022/01/07 10:25:37;;;;;;;2.33;1.40;;;3.30;99.90;;;;;;4974683;28;20657;-79
2022/01/07 10:28:08;;;;;;;2.10;1.63;;;3.20;99.90;;;;;;4971584;28;20244;-78
2022/01/07 10:30:50;;;;;;;2.40;1.50;;;3.30;99.90;;;;;;4976374;28;20642;-78
2022/01/07 10:33:21;;;;;;;1.87;1.37;;;3.20;99.90;;;;;;4970732;28;20181;-79
2022/01/07 10:35:51;;;;;;;2.60;1.37;;;3.20;99.90;;;;;;4968239;28;20185;-78
2022/01/07 10:38:23;;;;;;;5.30;1.80;;;3.20;99.90;;;;;;4971842;28;20650;-78
2022/01/07 10:40:51;;;;;;;1.50;1.40;;;3.20;99.90;;;;;;4984472;28;20217;-78
2022/01/07 10:43:36;;;;;;;2.13;1.50;;;3.20;99.90;;;;;;4982854;28;20185;-78
2022/01/07 10:46:10;;;;;;;2.07;1.60;;;3.20;99.90;;;;;;4972254;28;20250;-78
2022/01/07 10:49:05;;;;;;;9.77;5.53;;;3.20;99.90;;;;;;4973146;28;20234;-79
2022/01/07 10:51:32;;;;;;;4.33;2.60;;;3.20;99.90;;;;;;4990571;28;20265;-79
2022/01/07 10:54:04;;;;;;;4.10;3.70;;;3.30;99.90;;;;;;4980647;28;20181;-78
2022/01/07 10:56:37;;;;;;;2.00;1.67;;;3.20;99.90;;;;;;4975890;28;20340;-79
2022/01/07 10:59:08;;;;;;;2.50;1.90;;;3.20;99.90;;;;;;4974641;28;20180;-79
2022/01/07 11:01:39;;;;;;;2.47;1.70;;;3.30;99.90;;;;;;4974857;28;20212;-79
2022/01/07 11:04:08;;;;;;;3.80;2.00;;;3.30;99.90;;;;;;4969287;28;20705;-78
2022/01/07 11:06:35;;;;;;;2.43;1.60;;;3.40;99.90;;;;;;4969603;28;20232;-79
2022/01/07 11:09:03;;;;;;;4.67;2.23;;;3.40;99.90;;;;;;4984168;28;20517;-79
2022/01/07 11:11:30;;;;;;;2.77;2.17;;;3.30;99.90;;;;;;4972340;28;20207;-79
2022/01/07 11:14:04;;;;;;;4.93;2.60;;;3.40;99.90;;;;;;4978295;28;20210;-79
2022/01/07 11:16:29;;;;;;;4.63;3.27;;;3.40;99.90;;;;;;4987531;28;20184;-79
2022/01/07 11:18:56;;;;;;;3.03;2.00;;;3.50;99.90;;;;;;4991287;28;20189;-79
2022/01/07 11:21:22;;;;;;;3.83;1.90;;;3.50;99.90;;;;;;4981010;28;20215;-78
2022/01/07 11:23:48;;;;;;;2.20;1.97;;;3.50;99.90;;;;;;4978892;28;20176;-79
2022/01/07 11:26:18;;;;;;;2.50;2.20;;;3.60;99.90;;;;;;4986170;28;20215;-79
2022/01/07 11:29:00;;;;;;;3.60;2.60;;;3.70;99.90;;;;;;4981123;28;20265;-79
2022/01/07 11:31:28;;;;;;;3.53;2.17;;;3.60;99.90;;;;;;4992618;28;20224;-79
2022/01/07 11:34:18;;;;;;;3.17;2.03;;;3.70;99.90;;;;;;4970177;28;20862;-79
2022/01/07 11:36:45;;;;;;;4.60;2.27;;;3.70;99.90;;;;;;4970586;28;20189;-78
2022/01/07 11:39:10;;;;;;;3.07;2.07;;;3.70;99.90;;;;;;4977930;28;20208;-78
2022/01/07 11:41:48;;;;;;;2.73;1.83;;;3.70;99.90;;;;;;4975303;28;20658;-78
2022/01/07 11:44:26;;;;;;;3.13;2.10;;;3.80;99.90;;;;;;4973928;28;20207;-78
2022/01/07 11:47:12;;;;;;;2.20;2.00;;;3.80;99.90;;;;;;4976438;28;20196;-78
2022/01/07 11:49:38;;;;;;;2.40;2.00;;;3.70;99.90;;;;;;4976039;28;20177;-77
2022/01/07 11:52:30;;;;;;;3.70;2.20;;;3.70;99.90;;;;;;4977251;28;20196;-77
2022/01/07 11:55:19;;;;;;;2.70;2.10;;;3.70;99.90;;;;;;4990359;28;20177;-78
2022/01/07 11:57:47;;;;;;;4.13;2.00;;;3.70;99.90;;;;;;4977396;28;20181;-78
2022/01/07 12:00:13;;;;;;;3.83;2.50;;;3.70;99.90;;;;;;4974543;28;20266;-78
2022/01/07 12:03:01;;;;;;;2.23;2.03;;;3.70;99.90;;;;;;4976752;28;20189;-80
2022/01/07 12:05:33;;;;;;;2.73;1.90;;;3.60;99.90;;;;;;4976686;28;20184;-77
2022/01/07 12:07:59;;;;;;;2.40;2.07;;;3.50;99.90;;;;;;4976489;28;20176;-78
2022/01/07 12:10:24;;;;;;;5.03;2.50;;;3.50;99.90;;;;;;4975021;28;20605;-79
2022/01/07 12:13:00;;;;;;;2.47;2.17;;;3.50;99.90;;;;;;4976589;28;20267;-78
2022/01/07 12:15:29;;;;;;;3.20;2.37;;;3.60;99.90;;;;;;4988496;28;20220;-77
2022/01/07 12:18:07;;;;;;;2.10;1.90;;;3.50;99.90;;;;;;4976281;28;20942;-78
2022/01/07 12:20:50;;;;;;;4.37;2.53;;;3.50;99.90;;;;;;4972441;28;20690;-76
2022/01/07 12:23:22;;;;;;;3.57;2.13;;;3.60;99.90;;;;;;4972886;28;20804;-77
2022/01/07 12:25:49;;;;;;;3.23;2.60;;;3.60;99.90;;;;;;4966531;28;20185;-78
2022/01/07 12:28:15;;;;;;;3.47;2.67;;;3.60;99.90;;;;;;4970324;28;20244;-77
2022/01/07 12:30:41;;;;;;;5.67;4.80;;;3.60;99.90;;;;;;4972491;28;20224;-80
2022/01/07 12:33:08;;;;;;;3.23;2.30;;;3.60;99.90;;;;;;4974036;28;20196;-78
2022/01/07 12:35:34;;;;;;;3.00;2.40;;;3.70;99.90;;;;;;4969381;28;20328;-80
2022/01/07 12:37:59;;;;;;;2.83;2.17;;;3.70;99.90;;;;;;4969859;28;20272;-79
2022/01/07 12:40:25;;;;;;;2.90;2.07;;;3.80;99.90;;;;;;4967933;28;20208;-78
2022/01/07 12:42:51;;;;;;;2.43;2.23;;;3.80;99.90;;;;;;4984848;28;20184;-80
2022/01/07 12:45:20;;;;;;;1.90;1.70;;;3.90;99.90;;;;;;4970019;28;20200;-79
2022/01/07 12:47:46;;;;;;;3.73;2.20;;;4.00;99.90;;;;;;4974121;28;20254;-78
2022/01/07 12:50:12;;;;;;;3.37;1.80;;;4.10;99.90;;;;;;4971412;28;20900;-77
2022/01/07 12:52:43;;;;;;;2.20;1.90;;;4.00;99.90;;;;;;4986276;28;20228;-77
2022/01/07 12:55:20;;;;;;;3.90;1.90;;;4.10;99.90;;;;;;4987102;28;20295;-78
2022/01/07 12:57:57;;;;;;;3.03;1.90;;;4.20;99.90;;;;;;4967778;28;20239;-76
2022/01/07 13:00:27;;;;;;;2.30;1.83;;;4.20;99.90;;;;;;4981101;28;20215;-76
2022/01/07 13:02:55;;;;;;;3.70;2.10;;;4.30;99.90;;;;;;4968465;28;20188;-78
2022/01/07 13:05:36;;;;;;;3.10;2.00;;;4.20;99.90;;;;;;4984064;28;20189;-77